Time,TemperatureF,DewpointF,PressureIn,WindDirection,WindDirectionDegrees,WindSpeedMPH,WindSpeedGustMPH,Humidity,HourlyPrecipIn,Conditions,Clouds,dailyrainin,SolarRadiationWatts/m^2,SoftwareType,DateUTC
2013-03-04 00:04:00,26.3,18.5,30.05,West,272,10.0,13.0,72,0.00,,,0.00,0,Wunderground v.1.15,2013-03-04 07:04:00,
2013-03-04 00:10:00,25.6,19.1,30.06,West,273,11.0,17.0,76,0.00,,,0.00,0,Wunderground v.1.15,2013-03-04 07:10:00,
2013-03-04 00:16:00,25.2,19.3,30.06,WSW,253,12.0,17.0,78,0.00,,,0.00,0,Wunderground v.1.15,2013-03-04 07:16:00,
2013-03-04 00:24:00,24.1,18.2,30.06,SW,224,14.0,15.0,78,0.00,,,0.00,0,Wunderground v.1.15,2013-03-04 07:24:00,
2013-03-04 00:30:00,23.4,18.7,30.07,SW,229,14.0,17.0,82,0.00,,,0.00,0,Wunderground v.1.15,2013-03-04 07:30:00,
2013-03-04 00:38:00,22.6,18.8,30.08,SW,219,13.0,18.0,85,0.00,,,0.00,0,Wunderground v.1.15,2013-03-04 07:38:00,
2013-03-04 00:44:00,22.3,18.5,30.08,WSW,254,11.0,12.0,85,0.00,,,0.00,0,Wunderground v.1.15,2013-03-04 07:44:00,
2013-03-04 00:50:00,22.0,18.5,30.08,West,273,10.0,13.0,86,0.00,,,0.00,0,Wunderground v.1.15,2013-03-04 07:50:00,
2013-03-04 00:56:00,21.8,18.3,30.09,SW,229,9.0,13.0,86,0.00,,,0.00,0,Wunderground v.1.15,2013-03-04 07:56:00,
2013-03-04 01:02:00,21.7,18.2,30.10,SW,229,9.0,12.0,86,0.00,,,0.00,0,Wunderground v.1.15,2013-03-04 08:02:00,
2013-03-04 01:08:00,21.6,18.3,30.10,SW,229,8.0,12.0,87,0.00,,,0.00,0,Wunderground v.1.15,2013-03-04 08:08:00,
2013-03-04 01:14:00,21.5,18.2,30.11,SW,231,7.0,9.0,87,0.00,,,0.00,0,Wunderground v.1.15,2013-03-04 08:14:00,
2013-03-04 01:20:00,21.5,18.2,30.11,WSW,238,7.0,7.0,87,0.00,,,0.00,0,Wunderground v.1.15,2013-03-04 08:20:00,
2013-03-04 01:26:00,21.4,18.1,30.11,WSW,244,7.0,12.0,87,0.00,,,0.00,0,Wunderground v.1.15,2013-03-04 08:26:00,
2013-03-04 01:32:00,21.3,18.0,30.11,WSW,250,7.0,12.0,87,0.00,,,0.00,0,Wunderground v.1.15,2013-03-04 08:32:00,
2013-03-04 01:38:00,21.2,17.9,30.12,WSW,245,7.0,12.0,87,0.00,,,0.00,0,Wunderground v.1.15,2013-03-04 08:38:00,
2013-03-04 01:44:00,21.2,17.9,30.12,West,259,5.0,7.0,87,0.00,,,0.00,0,Wunderground v.1.15,2013-03-04 08:44:00,
2013-03-04 01:50:00,21.1,17.6,30.13,West,273,4.0,4.0,86,0.00,,,0.00,0,Wunderground v.1.15,2013-03-04 08:50:00,
2013-03-04 01:56:00,21.0,17.2,30.13,West,273,4.0,7.0,85,0.00,,,0.00,0,Wunderground v.1.15,2013-03-04 08:56:00,
2013-03-04 02:02:00,20.9,16.8,30.14,SW,234,5.0,6.0,84,0.00,,,0.00,0,Wunderground v.1.15,2013-03-04 09:02:00,
2013-03-04 02:08:00,20.9,16.5,30.14,WSW,252,6.0,7.0,83,0.00,,,0.00,0,Wunderground v.1.15,2013-03-04 09:08:00,
2013-03-04 02:14:00,20.9,16.5,30.14,WSW,257,5.0,6.0,83,0.00,,,0.00,0,Wunderground v.1.15,2013-03-04 09:14:00,
2013-03-04 02:20:00,20.9,16.5,30.15,WSW,257,4.0,5.0,83,0.00,,,0.00,0,Wunderground v.1.15,2013-03-04 09:20:00,
2013-03-04 02:26:00,20.9,16.5,30.15,WSW,250,5.0,8.0,83,0.00,,,0.00,0,Wunderground v.1.15,2013-03-04 09:26:00,
2013-03-04 02:32:00,20.9,16.5,30.15,WSW,257,5.0,5.0,83,0.00,,,0.00,0,Wunderground v.1.15,2013-03-04 09:32:00,
2013-03-04 02:38:00,21.0,16.6,30.16,WSW,240,5.0,9.0,83,0.00,,,0.00,0,Wunderground v.1.15,2013-03-04 09:38:00,
2013-03-04 02:44:00,21.0,16.6,30.16,West,261,5.0,6.0,83,0.00,,,0.00,0,Wunderground v.1.15,2013-03-04 09:44:00,
2013-03-04 02:50:00,20.9,16.5,30.16,West,261,4.0,4.0,83,0.00,,,0.00,0,Wunderground v.1.15,2013-03-04 09:50:00,
2013-03-04 02:56:00,20.9,16.8,30.16,West,261,3.0,4.0,84,0.00,,,0.00,0,Wunderground v.1.15,2013-03-04 09:56:00,
2013-03-04 03:02:00,20.9,16.8,30.17,WSW,258,3.0,3.0,84,0.00,,,0.00,0,Wunderground v.1.15,2013-03-04 10:02:00,
2013-03-04 03:08:00,20.9,16.8,30.17,WSW,258,3.0,5.0,84,0.00,,,0.00,0,Wunderground v.1.15,2013-03-04 10:08:00,
2013-03-04 03:14:00,20.9,17.1,30.17,WSW,248,4.0,6.0,85,0.00,,,0.00,0,Wunderground v.1.15,2013-03-04 10:14:00,
2013-03-04 03:20:00,20.9,17.1,30.17,WSW,255,5.0,5.0,85,0.00,,,0.00,0,Wunderground v.1.15,2013-03-04 10:20:00,
2013-03-04 03:26:00,20.8,17.0,30.18,SW,230,5.0,9.0,85,0.00,,,0.00,0,Wunderground v.1.15,2013-03-04 10:26:00,
2013-03-04 03:32:00,20.7,16.9,30.18,SW,231,5.0,5.0,85,0.00,,,0.00,0,Wunderground v.1.15,2013-03-04 10:32:00,
2013-03-04 03:38:00,20.5,16.7,30.19,WSW,240,4.0,5.0,85,0.00,,,0.00,0,Wunderground v.1.15,2013-03-04 10:38:00,
2013-03-04 03:46:00,20.2,16.4,30.19,WSW,238,3.0,3.0,85,0.00,,,0.00,0,Wunderground v.1.15,2013-03-04 10:46:00,
2013-03-04 03:52:00,20.1,16.0,30.19,WSW,238,3.0,3.0,84,0.00,,,0.00,0,Wunderground v.1.15,2013-03-04 10:52:00,
2013-03-04 03:58:00,19.9,16.1,30.19,WSW,238,3.0,3.0,85,0.00,,,0.00,0,Wunderground v.1.15,2013-03-04 10:58:00,
2013-03-04 04:04:00,19.7,15.9,30.20,WSW,238,3.0,3.0,85,0.00,,,0.00,0,Wunderground v.1.15,2013-03-04 11:04:00,
2013-03-04 04:10:00,19.7,15.9,30.20,WSW,238,3.0,3.0,85,0.00,,,0.00,0,Wunderground v.1.15,2013-03-04 11:10:00,
2013-03-04 04:16:00,19.6,16.1,30.21,SW,217,3.0,5.0,86,0.00,,,0.00,0,Wunderground v.1.15,2013-03-04 11:16:00,
2013-03-04 04:22:00,19.5,16.0,30.21,SSW,213,4.0,5.0,86,0.00,,,0.00,0,Wunderground v.1.15,2013-03-04 11:22:00,
2013-03-04 04:28:00,19.5,16.0,30.21,SSW,199,5.0,7.0,86,0.00,,,0.00,0,Wunderground v.1.15,2013-03-04 11:28:00,
2013-03-04 04:34:00,19.4,18.0,30.22,SSW,199,5.0,5.0,94,0.00,,,0.00,0,Wunderground v.1.15,2013-03-04 11:34:00,
2013-03-04 04:40:00,19.3,15.8,30.22,SSW,199,4.0,4.0,86,0.00,,,0.00,0,Wunderground v.1.15,2013-03-04 11:40:00,
2013-03-04 04:46:00,19.3,16.1,30.22,SSW,199,4.0,4.0,87,0.00,,,0.00,0,Wunderground v.1.15,2013-03-04 11:46:00,
2013-03-04 04:52:00,19.3,16.1,30.23,SSW,199,3.0,3.0,87,0.00,,,0.00,0,Wunderground v.1.15,2013-03-04 11:52:00,
2013-03-04 04:58:00,19.3,16.1,30.23,SSW,199,3.0,4.0,87,0.00,,,0.00,0,Wunderground v.1.15,2013-03-04 11:58:00,
2013-03-04 05:04:00,19.3,16.1,30.23,SW,227,3.0,3.0,87,0.00,,,0.00,0,Wunderground v.1.15,2013-03-04 12:04:00,
2013-03-04 05:10:00,19.3,16.1,30.24,SW,227,3.0,3.0,87,0.00,,,0.00,0,Wunderground v.1.15,2013-03-04 12:10:00,
2013-03-04 05:16:00,19.2,16.0,30.24,SW,227,3.0,3.0,87,0.00,,,0.00,0,Wunderground v.1.15,2013-03-04 12:16:00,
2013-03-04 05:22:00,19.1,15.9,30.25,SW,227,3.0,3.0,87,0.00,,,0.00,0,Wunderground v.1.15,2013-03-04 12:22:00,
2013-03-04 05:28:00,19.0,15.8,30.25,SW,227,3.0,4.0,87,0.00,,,0.00,0,Wunderground v.1.15,2013-03-04 12:28:00,
2013-03-04 05:34:00,18.9,15.7,30.25,SW,217,1.0,2.0,87,0.00,,,0.00,0,Wunderground v.1.15,2013-03-04 12:34:00,
2013-03-04 05:40:00,18.8,15.6,30.25,SW,217,1.0,3.0,87,0.00,,,0.00,0,Wunderground v.1.15,2013-03-04 12:40:00,
2013-03-04 05:46:00,18.7,15.5,30.25,SW,217,2.0,3.0,87,0.00,,,0.00,0,Wunderground v.1.15,2013-03-04 12:46:00,
2013-03-04 05:52:00,18.6,15.4,30.25,SW,217,1.0,2.0,87,0.00,,,0.00,0,Wunderground v.1.15,2013-03-04 12:52:00,
2013-03-04 05:58:00,18.6,15.1,30.26,SW,217,0.0,2.0,86,0.00,,,0.00,0,Wunderground v.1.15,2013-03-04 12:58:00,
2013-03-04 06:04:00,18.5,15.0,30.26,SW,217,0.0,0.0,86,0.00,,,0.00,0,Wunderground v.1.15,2013-03-04 13:04:00,
2013-03-04 06:10:00,18.5,15.0,30.26,SW,217,0.0,0.0,86,0.00,,,0.00,0,Wunderground v.1.15,2013-03-04 13:10:00,
2013-03-04 06:16:00,18.4,14.9,30.26,SW,217,0.0,0.0,86,0.00,,,0.00,0,Wunderground v.1.15,2013-03-04 13:16:00,
2013-03-04 06:22:00,18.3,14.8,30.27,SW,217,0.0,0.0,86,0.00,,,0.00,0,Wunderground v.1.15,2013-03-04 13:22:00,
2013-03-04 06:28:00,18.1,14.4,30.27,SW,217,0.0,0.0,85,0.00,,,0.00,0,Wunderground v.1.15,2013-03-04 13:28:00,
2013-03-04 06:34:00,18.0,14.3,30.28,SW,217,0.0,0.0,85,0.00,,,0.00,0,Wunderground v.1.15,2013-03-04 13:34:00,
2013-03-04 06:40:00,18.0,14.3,30.28,SW,217,0.0,0.0,85,0.00,,,0.00,0,Wunderground v.1.15,2013-03-04 13:40:00,
2013-03-04 06:46:00,17.9,14.2,30.28,SW,217,0.0,0.0,85,0.00,,,0.00,0,Wunderground v.1.15,2013-03-04 13:46:00,
2013-03-04 06:54:00,17.9,14.2,30.28,SW,217,1.0,5.0,85,0.00,,,0.00,0,Wunderground v.1.15,2013-03-04 13:54:00,
2013-03-04 07:00:00,17.9,14.2,30.29,SW,217,4.0,6.0,85,0.00,,,0.00,0,Wunderground v.1.15,2013-03-04 14:00:00,
2013-03-04 07:06:00,17.7,13.7,30.29,SW,216,5.0,6.0,84,0.00,,,0.00,0,Wunderground v.1.15,2013-03-04 14:06:00,
2013-03-04 07:12:00,17.7,13.7,30.29,SW,216,4.0,5.0,84,0.00,,,0.00,0,Wunderground v.1.15,2013-03-04 14:12:00,
2013-03-04 07:18:00,17.6,13.3,30.30,SW,216,3.0,5.0,83,0.00,,,0.00,7,Wunderground v.1.15,2013-03-04 14:18:00,
2013-03-04 07:24:00,17.5,13.2,30.30,SW,216,3.0,3.0,83,0.00,,,0.00,7,Wunderground v.1.15,2013-03-04 14:24:00,
2013-03-04 07:30:00,17.4,12.8,30.31,WSW,246,3.0,3.0,82,0.00,,,0.00,9,Wunderground v.1.15,2013-03-04 14:30:00,
2013-03-04 07:36:00,17.3,12.7,30.31,WSW,246,2.0,3.0,82,0.00,,,0.00,12,Wunderground v.1.15,2013-03-04 14:36:00,
2013-03-04 07:42:00,17.2,12.6,30.31,WSW,246,1.0,2.0,82,0.00,,,0.00,19,Wunderground v.1.15,2013-03-04 14:42:00,
2013-03-04 07:48:00,17.2,12.9,30.32,WSW,248,1.0,3.0,83,0.00,,,0.00,37,Wunderground v.1.15,2013-03-04 14:48:00,
2013-03-04 07:54:00,17.2,12.9,30.32,WSW,246,2.0,3.0,83,0.00,,,0.00,42,Wunderground v.1.15,2013-03-04 14:54:00,
2013-03-04 08:00:00,17.3,13.0,30.33,WSW,256,2.0,5.0,83,0.00,,,0.00,44,Wunderground v.1.15,2013-03-04 15:00:00,
2013-03-04 08:06:00,17.4,13.4,30.33,SW,225,3.0,5.0,84,0.00,,,0.00,44,Wunderground v.1.15,2013-03-04 15:06:00,
2013-03-04 08:12:00,17.5,13.5,30.33,SW,231,5.0,6.0,84,0.00,,,0.00,51,Wunderground v.1.15,2013-03-04 15:12:00,
2013-03-04 08:18:00,17.7,13.7,30.33,WSW,241,4.0,6.0,84,0.00,,,0.00,67,Wunderground v.1.15,2013-03-04 15:18:00,
2013-03-04 08:24:00,17.9,13.9,30.34,SW,232,3.0,4.0,84,0.00,,,0.00,79,Wunderground v.1.15,2013-03-04 15:24:00,
2013-03-04 08:30:00,18.1,14.1,30.34,SW,225,4.0,4.0,84,0.00,,,0.00,90,Wunderground v.1.15,2013-03-04 15:30:00,
2013-03-04 08:42:00,18.5,14.5,30.35,SW,220,4.0,5.0,84,0.00,,,0.00,100,Wunderground v.1.15,2013-03-04 15:42:00,
2013-03-04 08:50:00,18.7,14.4,30.35,SW,223,4.0,4.0,83,0.00,,,0.00,116,Wunderground v.1.15,2013-03-04 15:50:00,
2013-03-04 08:56:00,18.9,14.6,30.35,SSW,208,5.0,6.0,83,0.00,,,0.00,135,Wunderground v.1.15,2013-03-04 15:56:00,
2013-03-04 09:02:00,19.1,15.1,30.35,SW,220,5.0,5.0,84,0.00,,,0.00,144,Wunderground v.1.15,2013-03-04 16:02:00,
2013-03-04 09:08:00,19.3,15.0,30.35,SW,219,4.0,5.0,83,0.00,,,0.00,165,Wunderground v.1.15,2013-03-04 16:08:00,
2013-03-04 09:14:00,19.5,15.2,30.36,WSW,243,4.0,5.0,83,0.00,,,0.00,174,Wunderground v.1.15,2013-03-04 16:14:00,
2013-03-04 09:22:00,19.8,15.5,30.36,SW,234,3.0,3.0,83,0.00,,,0.00,211,Wunderground v.1.15,2013-03-04 16:22:00,
2013-03-04 09:28:00,20.2,15.9,30.36,SW,227,3.0,5.0,83,0.00,,,0.00,250,Wunderground v.1.15,2013-03-04 16:28:00,
2013-03-04 09:34:00,20.5,15.9,30.36,SW,233,4.0,5.0,82,0.00,,,0.00,285,Wunderground v.1.15,2013-03-04 16:34:00,
2013-03-04 09:40:00,20.8,16.5,30.36,SW,221,3.0,5.0,83,0.00,,,0.00,360,Wunderground v.1.15,2013-03-04 16:40:00,
2013-03-04 09:46:00,21.4,16.8,30.36,WSW,238,3.0,6.0,82,0.00,,,0.00,464,Wunderground v.1.15,2013-03-04 16:46:00,
2013-03-04 09:52:00,22.0,17.1,30.36,SSW,209,3.0,5.0,81,0.00,,,0.00,390,Wunderground v.1.15,2013-03-04 16:52:00,
2013-03-04 09:58:00,22.6,17.4,30.36,SSW,196,4.0,6.0,80,0.00,,,0.00,550,Wunderground v.1.15,2013-03-04 16:58:00,
2013-03-04 10:04:00,23.2,17.4,30.36,SSW,211,5.0,5.0,78,0.00,,,0.00,596,Wunderground v.1.15,2013-03-04 17:04:00,
2013-03-04 10:10:00,23.4,16.6,30.36,SSW,194,5.0,5.0,75,0.00,,,0.00,248,Wunderground v.1.15,2013-03-04 17:10:00,
2013-03-04 10:16:00,23.2,16.1,30.37,SSW,192,4.0,5.0,74,0.00,,,0.00,439,Wunderground v.1.15,2013-03-04 17:16:00,
2013-03-04 10:22:00,23.3,16.5,30.38,SSW,192,1.0,4.0,75,0.00,,,0.00,385,Wunderground v.1.15,2013-03-04 17:22:00,
2013-03-04 10:28:00,23.6,17.1,30.37,SW,219,3.0,4.0,76,0.00,,,0.00,422,Wunderground v.1.15,2013-03-04 17:28:00,
2013-03-04 10:34:00,23.7,16.0,30.38,SW,216,4.0,4.0,72,0.00,,,0.00,169,Wunderground v.1.15,2013-03-04 17:34:00,
2013-03-04 10:40:00,23.9,17.1,30.37,SW,215,3.0,4.0,75,0.00,,,0.00,654,Wunderground v.1.15,2013-03-04 17:40:00,
2013-03-04 10:46:00,24.3,16.6,30.37,SW,225,4.0,9.0,72,0.00,,,0.00,225,Wunderground v.1.15,2013-03-04 17:46:00,
2013-03-04 10:52:00,24.5,16.1,30.38,SW,225,3.0,4.0,70,0.00,,,0.00,636,Wunderground v.1.15,2013-03-04 17:52:00,
2013-03-04 10:58:00,24.9,16.5,30.37,SW,235,2.0,4.0,70,0.00,,,0.01,689,Wunderground v.1.15,2013-03-04 17:58:00,
2013-03-04 11:04:00,25.3,16.2,30.38,SW,236,4.0,4.0,68,0.00,,,0.01,737,Wunderground v.1.15,2013-03-04 18:04:00,
2013-03-04 11:10:00,25.5,15.0,30.38,WSW,245,3.0,6.0,64,0.00,,,0.01,285,Wunderground v.1.15,2013-03-04 18:10:00,
2013-03-04 11:16:00,25.5,16.1,30.38,WSW,244,4.0,6.0,67,0.00,,,0.01,679,Wunderground v.1.15,2013-03-04 18:16:00,
2013-03-04 11:22:00,25.9,16.1,30.38,South,190,5.0,7.0,66,0.00,,,0.01,666,Wunderground v.1.15,2013-03-04 18:22:00,
2013-03-04 11:28:00,26.3,16.8,30.37,WSW,248,5.0,7.0,67,0.00,,,0.01,721,Wunderground v.1.15,2013-03-04 18:28:00,
2013-03-04 11:30:00,26.4,16.9,30.37,WSW,242,5.0,5.0,67,0.00,,,0.01,721,Wunderground v.1.15,2013-03-04 18:30:00,
2013-03-04 11:32:00,26.5,17.0,30.37,West,263,5.0,5.0,67,0.00,,,0.01,679,Wunderground v.1.15,2013-03-04 18:32:00,
2013-03-04 11:34:00,26.7,16.5,30.37,WSW,257,4.0,5.0,65,0.00,,,0.01,680,Wunderground v.1.15,2013-03-04 18:34:00,
2013-03-04 11:40:00,27.1,16.2,30.38,SW,222,3.0,3.0,63,0.00,,,0.01,686,Wunderground v.1.15,2013-03-04 18:40:00,
2013-03-04 11:44:00,27.4,16.1,30.38,SW,234,3.0,7.0,62,0.00,,,0.01,687,Wunderground v.1.15,2013-03-04 18:44:00,
2013-03-04 11:50:00,27.5,15.8,30.39,WSW,239,4.0,9.0,61,0.00,,,0.01,722,Wunderground v.1.15,2013-03-04 18:50:00,
2013-03-04 11:56:00,27.5,14.6,30.39,SW,219,4.0,9.0,58,0.00,,,0.01,747,Wunderground v.1.15,2013-03-04 18:56:00,
2013-03-04 12:02:00,27.5,14.2,30.39,SW,229,3.0,4.0,57,0.00,,,0.01,142,Wunderground v.1.15,2013-03-04 19:02:00,
2013-03-04 12:08:00,27.5,13.8,30.39,SSW,204,3.0,4.0,56,0.00,,,0.01,809,Wunderground v.1.15,2013-03-04 19:08:00,
2013-03-04 12:14:00,27.6,13.9,30.39,WSW,238,2.0,3.0,56,0.00,,,0.01,262,Wunderground v.1.15,2013-03-04 19:14:00,
2013-03-04 12:20:00,27.4,14.1,30.39,SW,227,4.0,10.0,57,0.00,,,0.01,791,Wunderground v.1.15,2013-03-04 19:20:00,
2013-03-04 12:26:00,27.2,12.7,30.39,SW,225,3.0,10.0,54,0.00,,,0.01,120,Wunderground v.1.15,2013-03-04 19:26:00,
2013-03-04 12:32:00,26.9,11.2,30.39,SW,225,1.0,2.0,51,0.00,,,0.01,209,Wunderground v.1.15,2013-03-04 19:32:00,
2013-03-04 12:38:00,26.6,11.3,30.38,SW,221,1.0,3.0,52,0.00,,,0.01,738,Wunderground v.1.15,2013-03-04 19:38:00,
2013-03-04 12:44:00,26.9,12.5,30.38,SSW,204,1.0,2.0,54,0.00,,,0.01,731,Wunderground v.1.15,2013-03-04 19:44:00,
2013-03-04 12:50:00,27.5,13.0,30.38,SSW,209,2.0,2.0,54,0.00,,,0.01,729,Wunderground v.1.15,2013-03-04 19:50:00,
2013-03-04 12:56:00,27.9,12.5,30.37,South,178,3.0,4.0,52,0.00,,,0.01,752,Wunderground v.1.15,2013-03-04 19:56:00,
2013-03-04 13:06:00,28.1,11.4,30.37,NW,309,3.0,3.0,49,0.00,,,0.01,712,Wunderground v.1.15,2013-03-04 20:06:00,
2013-03-04 13:12:00,28.3,10.1,30.37,WNW,296,3.0,4.0,46,0.00,,,0.01,708,Wunderground v.1.15,2013-03-04 20:12:00,
2013-03-04 13:18:00,28.6,10.9,30.37,North,355,2.0,4.0,47,0.00,,,0.01,714,Wunderground v.1.15,2013-03-04 20:18:00,
2013-03-04 13:24:00,29.2,13.3,30.37,WSW,242,2.0,2.0,51,0.00,,,0.01,705,Wunderground v.1.15,2013-03-04 20:24:00,
2013-03-04 13:30:00,29.8,14.3,30.37,SW,217,3.0,5.0,52,0.00,,,0.01,710,Wunderground v.1.15,2013-03-04 20:30:00,
2013-03-04 13:36:00,30.0,13.6,30.38,SW,230,5.0,7.0,50,0.00,,,0.01,693,Wunderground v.1.15,2013-03-04 20:36:00,
2013-03-04 13:42:00,29.8,13.4,30.37,SW,230,6.0,6.0,50,0.00,,,0.01,689,Wunderground v.1.15,2013-03-04 20:42:00,
2013-03-04 13:48:00,29.7,12.4,30.37,WNW,290,4.0,6.0,48,0.00,,,0.01,682,Wunderground v.1.15,2013-03-04 20:48:00,
2013-03-04 13:54:00,29.6,13.2,30.37,WNW,302,3.0,6.0,50,0.00,,,0.01,677,Wunderground v.1.15,2013-03-04 20:54:00,
2013-03-04 14:00:00,29.7,12.8,30.37,WSW,252,4.0,4.0,49,0.00,,,0.01,675,Wunderground v.1.15,2013-03-04 21:00:00,
2013-03-04 14:06:00,29.7,13.3,30.37,SW,226,4.0,5.0,50,0.00,,,0.01,670,Wunderground v.1.15,2013-03-04 21:06:00,
2013-03-04 14:12:00,30.1,14.1,30.37,SW,223,3.0,3.0,51,0.00,,,0.01,661,Wunderground v.1.15,2013-03-04 21:12:00,
2013-03-04 14:18:00,30.3,13.4,30.37,West,271,2.0,4.0,49,0.00,,,0.01,650,Wunderground v.1.15,2013-03-04 21:18:00,
2013-03-04 14:24:00,30.3,13.4,30.37,SW,228,3.0,5.0,49,0.00,,,0.01,643,Wunderground v.1.15,2013-03-04 21:24:00,
2013-03-04 14:30:00,30.6,13.2,30.37,West,259,4.0,4.0,48,0.00,,,0.01,638,Wunderground v.1.15,2013-03-04 21:30:00,
2013-03-04 14:36:00,30.7,12.3,30.37,WSW,246,5.0,6.0,46,0.00,,,0.01,628,Wunderground v.1.15,2013-03-04 21:36:00,
2013-03-04 14:42:00,30.7,13.8,30.37,WNW,288,4.0,7.0,49,0.00,,,0.01,615,Wunderground v.1.15,2013-03-04 21:42:00,
2013-03-04 14:48:00,30.8,12.9,30.36,West,261,4.0,7.0,47,0.00,,,0.01,601,Wunderground v.1.15,2013-03-04 21:48:00,
2013-03-04 14:54:00,30.6,12.2,30.36,West,267,5.0,5.0,46,0.00,,,0.01,589,Wunderground v.1.15,2013-03-04 21:54:00,
2013-03-04 15:00:00,30.6,13.7,30.36,West,265,5.0,9.0,49,0.00,,,0.01,575,Wunderground v.1.15,2013-03-04 22:00:00,
2013-03-04 15:06:00,30.5,12.6,30.36,SW,227,5.0,9.0,47,0.00,,,0.01,563,Wunderground v.1.15,2013-03-04 22:06:00,
2013-03-04 15:12:00,30.6,13.2,30.36,SW,229,5.0,10.0,48,0.00,,,0.01,548,Wunderground v.1.15,2013-03-04 22:12:00,
2013-03-04 15:18:00,30.8,13.4,30.36,SW,228,5.0,10.0,48,0.00,,,0.01,536,Wunderground v.1.15,2013-03-04 22:18:00,
2013-03-04 15:24:00,31.0,13.1,30.35,WSW,241,5.0,6.0,47,0.00,,,0.01,522,Wunderground v.1.15,2013-03-04 22:24:00,
2013-03-04 15:30:00,31.0,13.1,30.35,SW,232,5.0,5.0,47,0.00,,,0.01,508,Wunderground v.1.15,2013-03-04 22:30:00,
2013-03-04 15:36:00,31.0,12.6,30.35,SW,227,4.0,8.0,46,0.00,,,0.01,492,Wunderground v.1.15,2013-03-04 22:36:00,
2013-03-04 15:42:00,31.0,12.6,30.35,SW,232,5.0,5.0,46,0.00,,,0.01,476,Wunderground v.1.15,2013-03-04 22:42:00,
2013-03-04 15:48:00,30.9,12.0,30.35,SSW,205,5.0,5.0,45,0.00,,,0.01,462,Wunderground v.1.15,2013-03-04 22:48:00,
2013-03-04 15:54:00,30.9,13.0,30.35,SW,221,5.0,7.0,47,0.00,,,0.01,439,Wunderground v.1.15,2013-03-04 22:54:00,
2013-03-04 16:00:00,30.8,11.9,30.35,SSW,196,5.0,5.0,45,0.00,,,0.01,429,Wunderground v.1.15,2013-03-04 23:00:00,
2013-03-04 16:06:00,30.6,12.2,30.35,SSW,194,4.0,6.0,46,0.00,,,0.01,411,Wunderground v.1.15,2013-03-04 23:06:00,
2013-03-04 16:12:00,30.7,12.3,30.35,SSW,212,4.0,6.0,46,0.00,,,0.01,396,Wunderground v.1.15,2013-03-04 23:12:00,
2013-03-04 16:18:00,30.7,11.8,30.34,SW,229,3.0,6.0,45,0.00,,,0.01,376,Wunderground v.1.15,2013-03-04 23:18:00,
2013-03-04 16:24:00,30.8,11.9,30.34,SW,228,2.0,4.0,45,0.00,,,0.01,355,Wunderground v.1.15,2013-03-04 23:24:00,
2013-03-04 16:30:00,31.0,12.1,30.34,WSW,252,2.0,2.0,45,0.00,,,0.01,336,Wunderground v.1.15,2013-03-04 23:30:00,
2013-03-04 16:36:00,30.8,11.4,30.34,WNW,284,2.0,6.0,44,0.00,,,0.01,322,Wunderground v.1.15,2013-03-04 23:36:00,
2013-03-04 16:42:00,30.2,11.4,30.34,West,277,3.0,4.0,45,0.00,,,0.01,272,Wunderground v.1.15,2013-03-04 23:42:00,
2013-03-04 16:48:00,29.8,10.5,30.34,West,275,3.0,4.0,44,0.00,,,0.01,88,Wunderground v.1.15,2013-03-04 23:48:00,
2013-03-04 16:54:00,29.4,12.1,30.34,West,275,2.0,3.0,48,0.00,,,0.01,123,Wunderground v.1.15,2013-03-04 23:54:00,
2013-03-04 17:00:00,29.1,10.9,30.34,West,275,0.0,3.0,46,0.00,,,0.01,269,Wunderground v.1.15,2013-03-05 00:00:00,
2013-03-04 17:06:00,28.8,11.1,30.34,West,275,2.0,3.0,47,0.00,,,0.01,260,Wunderground v.1.15,2013-03-05 00:06:00,
2013-03-04 17:12:00,28.9,11.6,30.34,West,274,1.0,2.0,48,0.00,,,0.01,216,Wunderground v.1.15,2013-03-05 00:12:00,
2013-03-04 17:18:00,29.2,11.4,30.34,West,277,1.0,3.0,47,0.00,,,0.01,204,Wunderground v.1.15,2013-03-05 00:18:00,
2013-03-04 17:24:00,29.2,11.4,30.34,West,276,2.0,3.0,47,0.00,,,0.01,176,Wunderground v.1.15,2013-03-05 00:24:00,
2013-03-04 17:30:00,29.1,10.9,30.34,West,276,2.0,5.0,46,0.00,,,0.01,135,Wunderground v.1.15,2013-03-05 00:30:00,
2013-03-04 17:36:00,28.7,11.5,30.33,West,278,3.0,5.0,48,0.00,,,0.01,111,Wunderground v.1.15,2013-03-05 00:36:00,
2013-03-04 17:42:00,28.5,11.3,30.33,West,277,2.0,3.0,48,0.00,,,0.01,88,Wunderground v.1.15,2013-03-05 00:42:00,
2013-03-04 17:48:00,28.3,11.1,30.33,West,277,1.0,3.0,48,0.00,,,0.01,70,Wunderground v.1.15,2013-03-05 00:48:00,
2013-03-04 17:54:00,28.1,10.9,30.33,West,277,1.0,2.0,48,0.00,,,0.01,49,Wunderground v.1.15,2013-03-05 00:54:00,
2013-03-04 18:00:00,27.7,11.5,30.33,West,277,1.0,1.0,50,0.00,,,0.01,23,Wunderground v.1.15,2013-03-05 01:00:00,
2013-03-04 18:06:00,27.4,11.6,30.33,West,277,0.0,1.0,51,0.00,,,0.01,18,Wunderground v.1.15,2013-03-05 01:06:00,
2013-03-04 18:12:00,26.8,10.6,30.33,West,277,0.0,0.0,50,0.00,,,0.01,14,Wunderground v.1.15,2013-03-05 01:12:00,
2013-03-04 18:18:00,25.3,9.7,30.33,West,277,1.0,3.0,51,0.00,,,0.01,9,Wunderground v.1.15,2013-03-05 01:18:00,
2013-03-04 18:24:00,24.2,9.5,30.33,West,277,2.0,2.0,53,0.00,,,0.01,5,Wunderground v.1.15,2013-03-05 01:24:00,
2013-03-04 18:30:00,22.8,9.8,30.33,West,277,2.0,2.0,57,0.00,,,0.01,0,Wunderground v.1.15,2013-03-05 01:30:00,
2013-03-04 18:36:00,22.1,9.9,30.33,West,277,0.0,2.0,59,0.00,,,0.01,0,Wunderground v.1.15,2013-03-05 01:36:00,
2013-03-04 18:42:00,21.6,10.6,30.33,West,277,0.0,0.0,62,0.00,,,0.01,0,Wunderground v.1.15,2013-03-05 01:42:00,
2013-03-04 18:48:00,21.4,10.7,30.33,West,277,0.0,0.0,63,0.00,,,0.01,0,Wunderground v.1.15,2013-03-05 01:48:00,
2013-03-04 18:54:00,21.1,10.1,30.33,West,277,0.0,0.0,62,0.00,,,0.01,0,Wunderground v.1.15,2013-03-05 01:54:00,
2013-03-04 19:02:00,20.7,10.4,30.33,West,277,0.0,0.0,64,0.00,,,0.01,0,Wunderground v.1.15,2013-03-05 02:02:00,
2013-03-04 19:08:00,20.4,9.8,30.34,West,277,0.0,0.0,63,0.00,,,0.01,0,Wunderground v.1.15,2013-03-05 02:08:00,
2013-03-04 19:14:00,20.1,10.6,30.34,West,277,0.0,4.0,66,0.00,,,0.01,0,Wunderground v.1.15,2013-03-05 02:14:00,
2013-03-04 19:20:00,19.6,9.4,30.34,West,277,2.0,4.0,64,0.00,,,0.01,0,Wunderground v.1.15,2013-03-05 02:20:00,
2013-03-04 19:26:00,19.0,9.2,30.34,West,277,1.0,2.0,65,0.00,,,0.01,0,Wunderground v.1.15,2013-03-05 02:26:00,
2013-03-04 19:32:00,18.8,10.0,30.34,West,272,2.0,2.0,68,0.00,,,0.01,0,Wunderground v.1.15,2013-03-05 02:32:00,
2013-03-04 19:38:00,18.5,9.4,30.35,West,276,2.0,3.0,67,0.00,,,0.01,0,Wunderground v.1.15,2013-03-05 02:38:00,
2013-03-04 19:44:00,18.4,9.9,30.34,West,276,1.0,1.0,69,0.00,,,0.01,0,Wunderground v.1.15,2013-03-05 02:44:00,
2013-03-04 19:50:00,18.4,9.9,30.34,West,275,0.0,2.0,69,0.00,,,0.01,0,Wunderground v.1.15,2013-03-05 02:50:00,
2013-03-04 19:56:00,18.3,9.8,30.34,West,278,0.0,0.0,69,0.00,,,0.01,0,Wunderground v.1.15,2013-03-05 02:56:00,
2013-03-04 20:02:00,18.2,10.4,30.34,West,278,0.0,0.0,71,0.00,,,0.01,0,Wunderground v.1.15,2013-03-05 03:02:00,
2013-03-04 20:08:00,18.0,10.2,30.34,West,281,0.0,0.0,71,0.00,,,0.01,0,Wunderground v.1.15,2013-03-05 03:08:00,
2013-03-04 20:14:00,18.0,10.2,30.34,WNW,284,0.0,0.0,71,0.00,,,0.01,0,Wunderground v.1.15,2013-03-05 03:14:00,
2013-03-04 20:20:00,17.7,9.9,30.34,WNW,284,0.0,0.0,71,0.00,,,0.01,0,Wunderground v.1.15,2013-03-05 03:20:00,
2013-03-04 20:26:00,17.6,10.1,30.33,WNW,285,0.0,0.0,72,0.00,,,0.01,0,Wunderground v.1.15,2013-03-05 03:26:00,
2013-03-04 20:32:00,17.4,10.2,30.33,ENE,58,1.0,4.0,73,0.00,,,0.01,0,Wunderground v.1.15,2013-03-05 03:32:00,
2013-03-04 20:38:00,17.1,10.2,30.33,ENE,59,2.0,4.0,74,0.00,,,0.01,0,Wunderground v.1.15,2013-03-05 03:38:00,
2013-03-04 20:44:00,17.0,10.1,30.33,ENE,59,2.0,3.0,74,0.00,,,0.01,0,Wunderground v.1.15,2013-03-05 03:44:00,
2013-03-04 20:50:00,16.8,10.2,30.33,ENE,59,1.0,1.0,75,0.00,,,0.01,0,Wunderground v.1.15,2013-03-05 03:50:00,
2013-03-04 20:56:00,16.7,10.1,30.33,ENE,59,1.0,1.0,75,0.00,,,0.01,0,Wunderground v.1.15,2013-03-05 03:56:00,
2013-03-04 21:02:00,16.5,10.0,30.33,ENE,59,0.0,0.0,75,0.00,,,0.01,0,Wunderground v.1.15,2013-03-05 04:02:00,
2013-03-04 21:08:00,16.4,9.9,30.33,ENE,59,0.0,0.0,75,0.00,,,0.01,0,Wunderground v.1.15,2013-03-05 04:08:00,
2013-03-04 21:14:00,16.3,9.8,30.33,ENE,59,0.0,0.0,75,0.00,,,0.01,0,Wunderground v.1.15,2013-03-05 04:14:00,
2013-03-04 21:20:00,16.1,9.9,30.33,ENE,59,0.0,0.0,76,0.00,,,0.01,0,Wunderground v.1.15,2013-03-05 04:20:00,
2013-03-04 21:26:00,15.9,9.4,30.33,ENE,59,0.0,0.0,75,0.00,,,0.01,0,Wunderground v.1.15,2013-03-05 04:26:00,
2013-03-04 21:32:00,15.6,9.1,30.33,ENE,59,0.0,0.0,75,0.00,,,0.01,0,Wunderground v.1.15,2013-03-05 04:32:00,
2013-03-04 21:38:00,15.4,9.5,30.33,ENE,59,0.0,0.0,77,0.00,,,0.01,0,Wunderground v.1.15,2013-03-05 04:38:00,
2013-03-04 21:44:00,15.2,9.6,30.33,ENE,59,0.0,0.0,78,0.00,,,0.01,0,Wunderground v.1.15,2013-03-05 04:44:00,
2013-03-04 21:50:00,15.0,9.4,30.32,ENE,59,0.0,0.0,78,0.00,,,0.01,0,Wunderground v.1.15,2013-03-05 04:50:00,
2013-03-04 21:56:00,14.9,9.6,30.32,ENE,59,0.0,0.0,79,0.00,,,0.01,0,Wunderground v.1.15,2013-03-05 04:56:00,
2013-03-04 22:00:00,14.9,9.6,30.32,ENE,59,0.0,0.0,79,0.00,,,0.01,0,Wunderground v.1.15,2013-03-05 05:00:00,
2013-03-04 22:02:00,14.9,9.6,30.32,ENE,59,0.0,0.0,79,0.00,,,0.01,0,Wunderground v.1.15,2013-03-05 05:02:00,
2013-03-04 22:04:00,14.9,9.6,30.32,ENE,59,0.0,0.0,79,0.00,,,0.01,0,Wunderground v.1.15,2013-03-05 05:04:00,
2013-03-04 22:06:00,14.9,9.6,30.32,ENE,59,0.0,0.0,79,0.00,,,0.01,0,Wunderground v.1.15,2013-03-05 05:06:00,
2013-03-04 22:12:00,14.8,9.5,30.32,ENE,59,0.0,0.0,79,0.00,,,0.01,0,Wunderground v.1.15,2013-03-05 05:12:00,
2013-03-04 22:18:00,14.8,9.5,30.32,ENE,59,0.0,0.0,79,0.00,,,0.01,0,Wunderground v.1.15,2013-03-05 05:18:00,
2013-03-04 22:24:00,14.5,8.6,30.32,ENE,59,0.0,0.0,77,0.00,,,0.01,0,Wunderground v.1.15,2013-03-05 05:24:00,
2013-03-04 22:30:00,14.3,8.7,30.32,ENE,59,0.0,0.0,78,0.00,,,0.01,0,Wunderground v.1.15,2013-03-05 05:30:00,
2013-03-04 22:36:00,13.8,7.6,30.32,ENE,58,0.0,0.0,76,0.00,,,0.01,0,Wunderground v.1.15,2013-03-05 05:36:00,
2013-03-04 22:42:00,13.5,7.6,30.32,ENE,58,0.0,0.0,77,0.00,,,0.01,0,Wunderground v.1.15,2013-03-05 05:42:00,
2013-03-04 22:48:00,13.2,7.9,30.32,ENE,58,0.0,0.0,79,0.00,,,0.01,0,Wunderground v.1.15,2013-03-05 05:48:00,
2013-03-04 22:54:00,13.0,7.7,30.32,ENE,57,0.0,0.0,79,0.00,,,0.01,0,Wunderground v.1.15,2013-03-05 05:54:00,
2013-03-04 23:00:00,13.0,8.0,30.32,ENE,57,0.0,0.0,80,0.00,,,0.01,0,Wunderground v.1.15,2013-03-05 06:00:00,
2013-03-04 23:06:00,13.0,8.3,30.32,ENE,58,0.0,1.0,81,0.00,,,0.01,0,Wunderground v.1.15,2013-03-05 06:06:00,
2013-03-04 23:12:00,13.1,8.6,30.32,NE,55,0.0,2.0,82,0.00,,,0.01,0,Wunderground v.1.15,2013-03-05 06:12:00,
2013-03-04 23:18:00,13.5,9.3,30.32,NE,48,2.0,3.0,83,0.00,,,0.01,0,Wunderground v.1.15,2013-03-05 06:18:00,
2013-03-04 23:24:00,14.5,10.5,30.32,ENE,58,4.0,6.0,84,0.00,,,0.01,0,Wunderground v.1.15,2013-03-05 06:24:00,
2013-03-04 23:30:00,15.2,10.7,30.32,NE,55,4.0,5.0,82,0.00,,,0.01,0,Wunderground v.1.15,2013-03-05 06:30:00,
2013-03-04 23:36:00,16.0,11.2,30.31,NE,53,5.0,5.0,81,0.00,,,0.01,0,Wunderground v.1.15,2013-03-05 06:36:00,
2013-03-04 23:42:00,16.8,11.1,30.31,ENE,63,5.0,5.0,78,0.00,,,0.01,0,Wunderground v.1.15,2013-03-05 06:42:00,
2013-03-04 23:48:00,17.7,11.1,30.30,NNE,12,6.0,14.0,75,0.00,,,0.01,0,Wunderground v.1.15,2013-03-05 06:48:00,
2013-03-04 23:54:00,19.2,11.0,30.30,NNE,31,9.0,14.0,70,0.00,,,0.01,0,Wunderground v.1.15,2013-03-05 06:54:00,